Time;durP1;ratioP1;P1;durP2;ratioP2;P2;SDS_P1;SDS_P2;PMS_P1;PMS_P2;Temp;Humidity;BMP_temperature;BMP_pressure;BME280_temperature;BME280_humidity;BME280_pressure;Samples;Min_cycle;Max_cycle;Signal;HPM_P1;HPM_P2
2022/01/15 00:00:14;;;;;;;0.00;0.00;;;;;;;;;;1714948;28;20296;-70
2022/01/15 00:01:06;;;;;;;0.00;0.00;;;;;;;;;;1724358;28;20258;-70
2022/01/15 00:01:57;;;;;;;0.00;0.00;;;;;;;;;;1723236;28;20211;-70
2022/01/15 00:02:49;;;;;;;0.00;0.00;;;;;;;;;;1724297;28;20261;-70
2022/01/15 00:03:41;;;;;;;0.00;0.00;;;;;;;;;;1725706;28;20236;-70
2022/01/15 00:04:34;;;;;;;0.03;0.03;;;;;;;;;;1726519;28;20218;-70
2022/01/15 00:05:25;;;;;;;0.00;0.00;;;;;;;;;;1723445;28;20208;-71
2022/01/15 00:06:18;;;;;;;0.10;0.10;;;;;;;;;;1726572;28;20231;-71
2022/01/15 00:07:09;;;;;;;0.00;0.00;;;;;;;;;;1725463;28;20208;-71
2022/01/15 00:08:01;;;;;;;0.00;0.00;;;;;;;;;;1726467;28;20201;-71
2022/01/15 00:08:53;;;;;;;0.00;0.00;;;;;;;;;;1725094;28;20204;-71
2022/01/15 00:09:49;;;;;;;0.00;0.00;;;;;;;;;;1726028;28;20672;-71
2022/01/15 00:10:40;;;;;;;0.00;0.00;;;;;;;;;;1723731;28;20232;-71
2022/01/15 00:11:34;;;;;;;0.00;0.00;;;;;;;;;;1725927;28;20200;-71
2022/01/15 00:12:25;;;;;;;0.00;0.00;;;;;;;;;;1725766;28;20212;-71
2022/01/15 00:13:25;;;;;;;0.00;0.00;;;;;;;;;;1725860;28;20208;-71
2022/01/15 00:14:25;;;;;;;0.00;0.00;;;;;;;;;;1726069;28;20201;-71
2022/01/15 00:15:22;;;;;;;0.00;0.00;;;;;;;;;;1724239;28;20214;-71
2022/01/15 00:16:27;;;;;;;0.00;0.00;;;;;;;;;;1725642;28;20232;-71
2022/01/15 00:17:31;;;;;;;0.00;0.00;;;;;;;;;;1726183;28;20647;-71
2022/01/15 00:18:39;;;;;;;0.00;0.00;;;;;;;;;;1726291;28;20655;-71
2022/01/15 00:19:41;;;;;;;0.00;0.00;;;;;;;;;;1724864;28;20211;-71
2022/01/15 00:20:33;;;;;;;0.00;0.00;;;;;;;;;;1722839;28;20240;-71
2022/01/15 00:21:26;;;;;;;0.00;0.00;;;;;;;;;;1725566;28;20561;-71
2022/01/15 00:22:18;;;;;;;0.00;0.00;;;;;;;;;;1725488;28;20270;-71
2022/01/15 00:23:11;;;;;;;0.00;0.00;;;;;;;;;;1726069;28;20302;-71
2022/01/15 00:24:02;;;;;;;0.00;0.00;;;;;;;;;;1726143;28;20230;-71
2022/01/15 00:24:54;;;;;;;0.00;0.00;;;;;;;;;;1726161;28;20212;-71
2022/01/15 00:25:46;;;;;;;0.00;0.00;;;;;;;;;;1723361;28;20573;-71
2022/01/15 00:26:38;;;;;;;0.00;0.00;;;;;;;;;;1725349;28;20645;-71
2022/01/15 00:27:29;;;;;;;0.00;0.00;;;;;;;;;;1725522;28;20204;-71
2022/01/15 00:28:21;;;;;;;0.00;0.00;;;;;;;;;;1725636;28;20542;-71
2022/01/15 00:29:12;;;;;;;0.00;0.00;;;;;;;;;;1725289;28;20208;-71
2022/01/15 00:30:05;;;;;;;0.00;0.00;;;;;;;;;;1725326;28;20426;-71
2022/01/15 00:30:56;;;;;;;0.00;0.00;;;;;;;;;;1723527;28;20242;-71
2022/01/15 00:31:48;;;;;;;0.00;0.00;;;;;;;;;;1727244;28;20242;-71
2022/01/15 00:32:40;;;;;;;0.00;0.00;;;;;;;;;;1725030;28;20204;-71
2022/01/15 00:33:32;;;;;;;0.00;0.00;;;;;;;;;;1724901;28;20197;-71
2022/01/15 00:34:23;;;;;;;0.20;0.20;;;;;;;;;;1725382;28;20546;-71
2022/01/15 00:35:16;;;;;;;0.00;0.00;;;;;;;;;;1724046;28;20864;-71
2022/01/15 00:36:09;;;;;;;0.00;0.00;;;;;;;;;;1725019;28;20232;-71
2022/01/15 00:37:01;;;;;;;0.00;0.00;;;;;;;;;;1725172;28;20204;-71
2022/01/15 00:37:52;;;;;;;0.00;0.00;;;;;;;;;;1724552;28;20353;-71
2022/01/15 00:38:44;;;;;;;0.00;0.00;;;;;;;;;;1724422;28;20367;-71
2022/01/15 00:39:36;;;;;;;0.00;0.00;;;;;;;;;;1725460;28;20724;-71
2022/01/15 00:40:28;;;;;;;0.00;0.00;;;;;;;;;;1722771;28;20231;-71
2022/01/15 00:41:20;;;;;;;0.00;0.00;;;;;;;;;;1725734;28;20200;-71
2022/01/15 00:42:13;;;;;;;0.00;0.00;;;;;;;;;;1726120;28;20625;-71
2022/01/15 00:43:04;;;;;;;0.00;0.00;;;;;;;;;;1726120;28;20266;-71
2022/01/15 00:43:57;;;;;;;0.00;0.00;;;;;;;;;;1725029;28;20204;-71
2022/01/15 00:44:50;;;;;;;0.00;0.00;;;;;;;;;;1724843;28;20196;-71
2022/01/15 00:45:42;;;;;;;0.00;0.00;;;;;;;;;;1721428;28;20237;-71
2022/01/15 00:46:33;;;;;;;0.00;0.00;;;;;;;;;;1725703;28;20211;-71
2022/01/15 00:47:30;;;;;;;0.00;0.00;;;;;;;;;;1725209;28;20200;-71
2022/01/15 00:48:22;;;;;;;0.10;0.10;;;;;;;;;;1726179;28;20516;-71
2022/01/15 00:49:14;;;;;;;0.00;0.00;;;;;;;;;;1725540;28;20208;-71
2022/01/15 00:50:06;;;;;;;0.00;0.00;;;;;;;;;;1724532;28;20262;-71
2022/01/15 00:50:58;;;;;;;0.00;0.00;;;;;;;;;;1722081;28;20238;-71
2022/01/15 00:51:51;;;;;;;0.10;0.10;;;;;;;;;;1724973;28;20219;-71
2022/01/15 00:52:44;;;;;;;0.10;0.10;;;;;;;;;;1725744;28;20212;-71
2022/01/15 00:53:35;;;;;;;0.00;0.00;;;;;;;;;;1726369;28;20242;-71
2022/01/15 00:54:27;;;;;;;0.00;0.00;;;;;;;;;;1725995;28;20222;-71
2022/01/15 00:55:19;;;;;;;0.00;0.00;;;;;;;;;;1723249;28;20212;-70
2022/01/15 00:56:11;;;;;;;0.00;0.00;;;;;;;;;;1724848;28;20232;-71
2022/01/15 00:57:03;;;;;;;0.00;0.00;;;;;;;;;;1724494;28;20217;-71
2022/01/15 00:57:55;;;;;;;0.10;0.10;;;;;;;;;;1725861;28;20223;-71
2022/01/15 00:58:46;;;;;;;0.00;0.00;;;;;;;;;;1724876;28;20208;-71
2022/01/15 00:59:38;;;;;;;0.00;0.00;;;;;;;;;;1725487;28;20389;-71
2022/01/15 01:00:30;;;;;;;0.00;0.00;;;;;;;;;;1722619;28;20232;-71
2022/01/15 01:01:22;;;;;;;0.00;0.00;;;;;;;;;;1722351;28;20252;-71
2022/01/15 01:02:13;;;;;;;0.00;0.00;;;;;;;;;;1723921;28;20200;-71
2022/01/15 01:03:06;;;;;;;0.00;0.00;;;;;;;;;;1725483;28;20204;-71
2022/01/15 01:03:57;;;;;;;0.00;0.00;;;;;;;;;;1725108;28;20693;-71
2022/01/15 01:04:49;;;;;;;0.00;0.00;;;;;;;;;;1725878;28;20666;-71
2022/01/15 01:05:40;;;;;;;0.00;0.00;;;;;;;;;;1725124;28;20236;-71
2022/01/15 01:06:32;;;;;;;0.00;0.00;;;;;;;;;;1725425;28;20540;-71
2022/01/15 01:07:25;;;;;;;0.00;0.00;;;;;;;;;;1725111;28;20213;-71
2022/01/15 01:08:17;;;;;;;0.00;0.00;;;;;;;;;;1724946;28;20239;-71
2022/01/15 01:09:08;;;;;;;0.00;0.00;;;;;;;;;;1725191;28;20227;-70
2022/01/15 01:10:12;;;;;;;0.00;0.00;;;;;;;;;;1725169;28;20196;-70
2022/01/15 01:11:11;;;;;;;0.00;0.00;;;;;;;;;;1716419;28;20241;-70
2022/01/15 01:12:20;;;;;;;0.00;0.00;;;;;;;;;;1718045;28;20200;-70
2022/01/15 01:13:27;;;;;;;0.00;0.00;;;;;;;;;;1718680;28;20197;-70
2022/01/15 01:20:18;;;;;;;0.00;0.00;;;;;;;;;;1716673;28;20207;-71
2022/01/15 01:21:37;;;;;;;0.00;0.00;;;;;;;;;;1716036;28;20425;-71
2022/01/15 01:22:53;;;;;;;0.00;0.00;;;;;;;;;;1718784;28;20693;-71
2022/01/15 01:23:46;;;;;;;0.00;0.00;;;;;;;;;;1718359;28;20197;-71
2022/01/15 01:24:37;;;;;;;0.00;0.00;;;;;;;;;;1718812;28;20235;-71
2022/01/15 01:25:35;;;;;;;0.00;0.00;;;;;;;;;;1716080;28;20351;-71
2022/01/15 01:26:30;;;;;;;0.00;0.00;;;;;;;;;;1716919;28;20205;-71
2022/01/15 01:27:27;;;;;;;0.00;0.00;;;;;;;;;;1718093;28;20212;-71
2022/01/15 01:28:25;;;;;;;0.10;0.10;;;;;;;;;;1718566;28;20676;-71
2022/01/15 01:29:28;;;;;;;0.00;0.00;;;;;;;;;;1718235;28;20295;-71
2022/01/15 01:30:24;;;;;;;0.00;0.00;;;;;;;;;;1716648;28;20201;-71
2022/01/15 01:31:20;;;;;;;0.00;0.00;;;;;;;;;;1718000;28;20225;-71
2022/01/15 01:32:27;;;;;;;0.00;0.00;;;;;;;;;;1717687;28;20193;-71
2022/01/15 01:33:31;;;;;;;0.00;0.00;;;;;;;;;;1712963;28;20664;-71
2022/01/15 01:34:25;;;;;;;0.00;0.00;;;;;;;;;;1715765;28;20634;-71
2022/01/15 01:35:30;;;;;;;0.00;0.00;;;;;;;;;;1713687;28;20298;-71
2022/01/15 01:36:36;;;;;;;0.00;0.00;;;;;;;;;;1723485;28;20236;-71
2022/01/15 01:37:35;;;;;;;0.00;0.00;;;;;;;;;;1724648;28;20205;-71
2022/01/15 01:38:32;;;;;;;0.00;0.00;;;;;;;;;;1723467;28;20522;-71
2022/01/15 01:39:26;;;;;;;0.00;0.00;;;;;;;;;;1725590;28;20211;-71
2022/01/15 01:40:25;;;;;;;0.00;0.00;;;;;;;;;;1726664;28;20201;-71
2022/01/15 01:41:19;;;;;;;0.00;0.00;;;;;;;;;;1724418;28;20319;-71
2022/01/15 01:42:29;;;;;;;0.00;0.00;;;;;;;;;;1724887;28;20203;-71
2022/01/15 01:44:41;;;;;;;0.00;0.00;;;;;;;;;;1703826;29;20602;-71
2022/01/15 01:45:33;;;;;;;0.00;0.00;;;;;;;;;;1707034;28;20242;-71
2022/01/15 01:46:37;;;;;;;0.00;0.00;;;;;;;;;;1718856;28;20733;-71
2022/01/15 01:47:39;;;;;;;0.00;0.00;;;;;;;;;;1717797;28;20216;-71
2022/01/15 01:48:31;;;;;;;0.00;0.00;;;;;;;;;;1718125;28;20554;-71
2022/01/15 01:49:22;;;;;;;0.10;0.10;;;;;;;;;;1718196;28;20205;-71
2022/01/15 01:50:16;;;;;;;0.00;0.00;;;;;;;;;;1716279;28;20236;-71
2022/01/15 01:51:07;;;;;;;0.00;0.00;;;;;;;;;;1716114;28;20247;-71
2022/01/15 01:52:00;;;;;;;0.00;0.00;;;;;;;;;;1717998;28;20619;-71
2022/01/15 01:52:53;;;;;;;0.00;0.00;;;;;;;;;;1718821;28;20205;-71
2022/01/15 01:53:45;;;;;;;0.00;0.00;;;;;;;;;;1717885;28;20213;-71
2022/01/15 01:54:36;;;;;;;0.00;0.00;;;;;;;;;;1718547;28;20271;-71
2022/01/15 01:55:29;;;;;;;0.00;0.00;;;;;;;;;;1715776;28;20332;-71
2022/01/15 01:56:20;;;;;;;0.00;0.00;;;;;;;;;;1717271;28;20209;-71
2022/01/15 01:57:13;;;;;;;0.00;0.00;;;;;;;;;;1718696;28;20204;-71
2022/01/15 01:58:04;;;;;;;0.00;0.00;;;;;;;;;;1718659;28;20224;-71
2022/01/15 01:58:56;;;;;;;0.00;0.00;;;;;;;;;;1717810;28;20208;-71
2022/01/15 01:59:47;;;;;;;0.00;0.00;;;;;;;;;;1718091;28;20201;-71
2022/01/15 02:00:40;;;;;;;0.00;0.00;;;;;;;;;;1715920;28;20340;-71
2022/01/15 02:01:31;;;;;;;0.00;0.00;;;;;;;;;;1718153;28;20643;-71
2022/01/15 02:02:23;;;;;;;0.00;0.00;;;;;;;;;;1717440;28;20228;-70
2022/01/15 02:03:14;;;;;;;0.00;0.00;;;;;;;;;;1718913;28;20546;-71
2022/01/15 02:04:07;;;;;;;0.00;0.00;;;;;;;;;;1718077;28;20311;-71
2022/01/15 02:04:58;;;;;;;0.00;0.00;;;;;;;;;;1718130;28;20569;-71
2022/01/15 02:05:51;;;;;;;0.00;0.00;;;;;;;;;;1716049;28;20553;-71
2022/01/15 02:06:42;;;;;;;0.00;0.00;;;;;;;;;;1713733;28;20529;-71
2022/01/15 02:07:35;;;;;;;0.00;0.00;;;;;;;;;;1718261;28;20308;-71
2022/01/15 02:08:29;;;;;;;0.00;0.00;;;;;;;;;;1717406;28;20536;-71
2022/01/15 02:09:23;;;;;;;0.00;0.00;;;;;;;;;;1718387;28;20266;-71
2022/01/15 02:10:16;;;;;;;0.00;0.00;;;;;;;;;;1716096;28;20208;-71
2022/01/15 02:11:08;;;;;;;0.00;0.00;;;;;;;;;;1718100;28;20263;-71
2022/01/15 02:11:59;;;;;;;0.00;0.00;;;;;;;;;;1717680;28;20283;-71
2022/01/15 02:12:54;;;;;;;0.00;0.00;;;;;;;;;;1718744;28;20225;-71
2022/01/15 02:13:46;;;;;;;0.00;0.00;;;;;;;;;;1718463;28;20596;-71
2022/01/15 02:14:38;;;;;;;0.00;0.00;;;;;;;;;;1717858;28;20324;-71
2022/01/15 02:15:30;;;;;;;0.00;0.00;;;;;;;;;;1715512;28;20240;-71
2022/01/15 02:16:23;;;;;;;0.00;0.00;;;;;;;;;;1718762;28;20253;-71
2022/01/15 02:17:16;;;;;;;0.00;0.00;;;;;;;;;;1717987;28;20704;-71
2022/01/15 02:18:09;;;;;;;0.00;0.00;;;;;;;;;;1718740;28;20270;-71
2022/01/15 02:19:00;;;;;;;0.00;0.00;;;;;;;;;;1718288;28;20531;-71
2022/01/15 02:20:22;;;;;;;0.00;0.00;;;;;;;;;;1718139;28;20228;-71
2022/01/15 02:23:34;;;;;;;0.00;0.00;;;;;;;;;;1725082;28;20221;-70
2022/01/15 02:24:26;;;;;;;0.00;0.00;;;;;;;;;;1724971;28;20215;-70
2022/01/15 02:25:17;;;;;;;0.00;0.00;;;;;;;;;;1723590;28;20209;-71
2022/01/15 02:26:10;;;;;;;0.00;0.00;;;;;;;;;;1723717;28;20625;-71
2022/01/15 02:27:01;;;;;;;0.00;0.00;;;;;;;;;;1724397;28;20204;-71
2022/01/15 02:27:53;;;;;;;0.00;0.00;;;;;;;;;;1725435;28;20219;-71
2022/01/15 02:28:45;;;;;;;0.00;0.00;;;;;;;;;;1724401;28;20220;-71
2022/01/15 02:29:38;;;;;;;0.00;0.00;;;;;;;;;;1725180;28;20211;-71
2022/01/15 02:30:29;;;;;;;0.00;0.00;;;;;;;;;;1721542;28;20240;-71
2022/01/15 02:31:22;;;;;;;0.00;0.00;;;;;;;;;;1716221;28;20296;-71
2022/01/15 02:32:13;;;;;;;0.00;0.00;;;;;;;;;;1716913;28;20209;-71
2022/01/15 02:33:05;;;;;;;0.00;0.00;;;;;;;;;;1718369;28;20638;-71
2022/01/15 02:33:58;;;;;;;0.00;0.00;;;;;;;;;;1717834;28;20223;-71
2022/01/15 02:34:50;;;;;;;0.00;0.00;;;;;;;;;;1718587;28;20524;-71
2022/01/15 02:35:43;;;;;;;0.00;0.00;;;;;;;;;;1720543;28;20239;-71
2022/01/15 02:36:36;;;;;;;0.10;0.10;;;;;;;;;;1725138;28;20208;-71
2022/01/15 02:37:28;;;;;;;0.00;0.00;;;;;;;;;;1724515;28;20227;-71
2022/01/15 02:38:20;;;;;;;0.00;0.00;;;;;;;;;;1724275;28;20255;-71
2022/01/15 02:39:12;;;;;;;0.00;0.00;;;;;;;;;;1724600;28;20302;-71
2022/01/15 02:40:11;;;;;;;0.00;0.00;;;;;;;;;;1724673;28;20215;-71
2022/01/15 02:41:05;;;;;;;0.00;0.00;;;;;;;;;;1715573;28;20229;-71
2022/01/15 02:41:56;;;;;;;0.00;0.00;;;;;;;;;;1717590;28;20224;-71
2022/01/15 02:42:48;;;;;;;0.00;0.00;;;;;;;;;;1718638;28;20611;-70
2022/01/15 02:43:40;;;;;;;0.00;0.00;;;;;;;;;;1717463;28;20209;-70
2022/01/15 02:44:37;;;;;;;0.00;0.00;;;;;;;;;;1718008;28;20291;-70
2022/01/15 02:45:29;;;;;;;0.00;0.00;;;;;;;;;;1715435;28;20241;-71
2022/01/15 02:46:34;;;;;;;0.00;0.00;;;;;;;;;;1716901;28;20197;-71
2022/01/15 02:48:36;;;;;;;0.00;0.00;;;;;;;;;;1718075;28;20812;-71
2022/01/15 02:49:28;;;;;;;0.00;0.00;;;;;;;;;;1718092;28;20208;-71
2022/01/15 02:50:20;;;;;;;0.00;0.00;;;;;;;;;;1715589;28;20650;-71
2022/01/15 02:51:14;;;;;;;0.00;0.00;;;;;;;;;;1719448;28;20232;-71
2022/01/15 02:52:05;;;;;;;0.00;0.00;;;;;;;;;;1719159;28;20217;-71
2022/01/15 02:52:57;;;;;;;0.00;0.00;;;;;;;;;;1720177;28;20208;-71
2022/01/15 02:53:54;;;;;;;0.00;0.00;;;;;;;;;;1719066;28;20200;-71
2022/01/15 02:54:46;;;;;;;0.00;0.00;;;;;;;;;;1719774;28;20637;-71
2022/01/15 02:55:41;;;;;;;0.00;0.00;;;;;;;;;;1719416;28;20247;-71
2022/01/15 02:56:35;;;;;;;0.00;0.00;;;;;;;;;;1724828;28;20323;-71
2022/01/15 02:57:26;;;;;;;0.00;0.00;;;;;;;;;;1724957;28;20216;-71
2022/01/15 02:58:19;;;;;;;0.00;0.00;;;;;;;;;;1724608;28;20262;-71
2022/01/15 02:59:15;;;;;;;0.00;0.00;;;;;;;;;;1724846;28;20208;-71
2022/01/15 03:00:08;;;;;;;0.00;0.00;;;;;;;;;;1724408;28;20232;-71
2022/01/15 03:00:59;;;;;;;0.00;0.00;;;;;;;;;;1714117;28;20593;-71
2022/01/15 03:01:51;;;;;;;0.00;0.00;;;;;;;;;;1724822;28;20232;-71
2022/01/15 03:02:42;;;;;;;0.00;0.00;;;;;;;;;;1726304;28;20220;-71
2022/01/15 03:03:35;;;;;;;0.00;0.00;;;;;;;;;;1725836;28;20243;-71
2022/01/15 03:04:26;;;;;;;0.00;0.00;;;;;;;;;;1726084;28;20209;-71
2022/01/15 03:05:20;;;;;;;0.10;0.10;;;;;;;;;;1724290;28;20319;-71
2022/01/15 03:06:13;;;;;;;0.00;0.00;;;;;;;;;;1725642;28;20259;-70
2022/01/15 03:07:05;;;;;;;0.00;0.00;;;;;;;;;;1725768;28;20354;-70
2022/01/15 03:07:56;;;;;;;0.00;0.00;;;;;;;;;;1725605;28;20311;-70
2022/01/15 03:08:50;;;;;;;0.00;0.00;;;;;;;;;;1725271;28;20262;-70
2022/01/15 03:09:41;;;;;;;0.00;0.00;;;;;;;;;;1726391;28;20205;-70
2022/01/15 03:10:34;;;;;;;0.00;0.00;;;;;;;;;;1723400;28;20247;-70
2022/01/15 03:11:27;;;;;;;0.00;0.00;;;;;;;;;;1726421;28;20204;-70
2022/01/15 03:12:19;;;;;;;0.00;0.00;;;;;;;;;;1725751;28;20216;-70
2022/01/15 03:13:12;;;;;;;0.00;0.00;;;;;;;;;;1726439;28;20258;-70
2022/01/15 03:14:04;;;;;;;0.00;0.00;;;;;;;;;;1724749;28;20227;-70
2022/01/15 03:15:00;;;;;;;0.10;0.10;;;;;;;;;;1722288;28;20200;-70
2022/01/15 03:15:52;;;;;;;0.00;0.00;;;;;;;;;;1723946;28;20239;-70
2022/01/15 03:16:43;;;;;;;0.00;0.00;;;;;;;;;;1725871;28;20212;-70
2022/01/15 03:17:36;;;;;;;0.00;0.00;;;;;;;;;;1725858;28;20705;-70
2022/01/15 03:18:27;;;;;;;0.00;0.00;;;;;;;;;;1725759;28;20208;-70
2022/01/15 03:19:19;;;;;;;0.00;0.00;;;;;;;;;;1724750;28;20274;-70
2022/01/15 03:20:15;;;;;;;0.00;0.00;;;;;;;;;;1724578;28;20724;-70
2022/01/15 03:21:07;;;;;;;0.00;0.00;;;;;;;;;;1724810;28;20671;-70
2022/01/15 03:21:59;;;;;;;0.00;0.00;;;;;;;;;;1727254;28;20501;-70
2022/01/15 03:22:52;;;;;;;0.00;0.00;;;;;;;;;;1726265;28;20646;-70
2022/01/15 03:23:43;;;;;;;0.00;0.00;;;;;;;;;;1725795;28;20709;-70
2022/01/15 03:24:35;;;;;;;0.00;0.00;;;;;;;;;;1726257;28;20550;-70
2022/01/15 03:25:26;;;;;;;0.00;0.00;;;;;;;;;;1724075;28;20303;-71
2022/01/15 03:26:18;;;;;;;0.00;0.00;;;;;;;;;;1724679;28;20224;-71
2022/01/15 03:27:10;;;;;;;0.00;0.00;;;;;;;;;;1725350;28;20227;-71
2022/01/15 03:28:02;;;;;;;0.00;0.00;;;;;;;;;;1726330;28;20208;-71
2022/01/15 03:28:53;;;;;;;0.00;0.00;;;;;;;;;;1725225;28;20269;-71
2022/01/15 03:29:45;;;;;;;0.00;0.00;;;;;;;;;;1725911;28;20266;-71
2022/01/15 03:30:36;;;;;;;0.00;0.00;;;;;;;;;;1723274;28;20621;-71
2022/01/15 03:31:29;;;;;;;0.00;0.00;;;;;;;;;;1725648;28;20204;-71
2022/01/15 03:32:20;;;;;;;0.00;0.00;;;;;;;;;;1725318;28;20215;-71
2022/01/15 03:33:12;;;;;;;0.00;0.00;;;;;;;;;;1725798;28;20701;-71
2022/01/15 03:34:03;;;;;;;0.00;0.00;;;;;;;;;;1725989;28;20565;-71
2022/01/15 03:34:56;;;;;;;0.00;0.00;;;;;;;;;;1726212;28;20200;-71
2022/01/15 03:35:47;;;;;;;0.00;0.00;;;;;;;;;;1723681;28;20236;-71
2022/01/15 03:36:39;;;;;;;0.00;0.00;;;;;;;;;;1726072;28;20251;-70
2022/01/15 03:37:31;;;;;;;0.00;0.00;;;;;;;;;;1724401;28;20223;-70
2022/01/15 03:38:24;;;;;;;0.00;0.00;;;;;;;;;;1725810;28;20207;-70
2022/01/15 03:39:15;;;;;;;0.00;0.00;;;;;;;;;;1726194;28;20234;-70
2022/01/15 03:40:09;;;;;;;0.00;0.00;;;;;;;;;;1725265;28;20304;-70
2022/01/15 03:41:01;;;;;;;0.00;0.00;;;;;;;;;;1722911;28;20247;-70
2022/01/15 03:41:53;;;;;;;0.00;0.00;;;;;;;;;;1725316;28;20204;-70
2022/01/15 03:42:44;;;;;;;0.00;0.00;;;;;;;;;;1726296;28;20208;-70
2022/01/15 03:43:37;;;;;;;0.00;0.00;;;;;;;;;;1725131;28;20212;-70
2022/01/15 03:44:28;;;;;;;0.05;0.05;;;;;;;;;;1726095;28;20204;-70
2022/01/15 03:45:20;;;;;;;0.00;0.00;;;;;;;;;;1723896;28;20256;-70
2022/01/15 03:46:11;;;;;;;0.00;0.00;;;;;;;;;;1725572;28;20228;-70
2022/01/15 03:47:04;;;;;;;0.00;0.00;;;;;;;;;;1725658;28;20338;-70
2022/01/15 03:47:57;;;;;;;0.00;0.00;;;;;;;;;;1726049;28;20649;-70
2022/01/15 03:48:49;;;;;;;0.00;0.00;;;;;;;;;;1725769;28;20200;-70
2022/01/15 03:49:41;;;;;;;0.00;0.00;;;;;;;;;;1723442;28;20212;-70
2022/01/15 03:50:33;;;;;;;0.00;0.00;;;;;;;;;;1723075;28;21102;-71
2022/01/15 03:51:24;;;;;;;0.00;0.00;;;;;;;;;;1725705;28;20710;-71
2022/01/15 03:52:16;;;;;;;0.00;0.00;;;;;;;;;;1725299;28;20204;-71
2022/01/15 03:53:09;;;;;;;0.00;0.00;;;;;;;;;;1726339;28;20286;-71
2022/01/15 03:54:01;;;;;;;0.00;0.00;;;;;;;;;;1725499;28;20203;-71
2022/01/15 03:54:53;;;;;;;0.00;0.00;;;;;;;;;;1726121;28;20639;-71
2022/01/15 03:55:45;;;;;;;0.00;0.00;;;;;;;;;;1709083;28;20236;-71
2022/01/15 03:56:36;;;;;;;0.00;0.00;;;;;;;;;;1711716;28;20651;-71
2022/01/15 03:57:28;;;;;;;0.00;0.00;;;;;;;;;;1718361;28;20213;-71
2022/01/15 03:58:20;;;;;;;0.00;0.00;;;;;;;;;;1719157;28;20212;-71
2022/01/15 03:59:12;;;;;;;0.00;0.00;;;;;;;;;;1718820;28;20204;-71
2022/01/15 04:00:05;;;;;;;0.00;0.00;;;;;;;;;;1718933;28;20535;-71
2022/01/15 04:00:57;;;;;;;0.00;0.00;;;;;;;;;;1723247;28;20601;-71
2022/01/15 04:01:49;;;;;;;0.00;0.00;;;;;;;;;;1724224;28;20608;-71
2022/01/15 04:02:42;;;;;;;0.00;0.00;;;;;;;;;;1724085;28;20198;-70
2022/01/15 04:03:33;;;;;;;0.03;0.03;;;;;;;;;;1725661;28;20582;-70
2022/01/15 04:04:25;;;;;;;0.00;0.00;;;;;;;;;;1726148;28;20645;-70
2022/01/15 04:05:16;;;;;;;0.00;0.00;;;;;;;;;;1724222;28;20448;-70
2022/01/15 04:06:09;;;;;;;0.00;0.00;;;;;;;;;;1725487;28;20305;-70
2022/01/15 04:07:00;;;;;;;0.10;0.10;;;;;;;;;;1724997;28;20200;-70
2022/01/15 04:07:53;;;;;;;0.00;0.00;;;;;;;;;;1725347;28;20211;-70
2022/01/15 04:08:45;;;;;;;0.00;0.00;;;;;;;;;;1725387;28;20208;-70
2022/01/15 04:09:38;;;;;;;0.00;0.00;;;;;;;;;;1726037;28;20294;-70
2022/01/15 04:10:29;;;;;;;0.00;0.00;;;;;;;;;;1723389;28;20240;-70
2022/01/15 04:11:21;;;;;;;0.00;0.00;;;;;;;;;;1724090;28;20519;-70
2022/01/15 04:12:12;;;;;;;0.00;0.00;;;;;;;;;;1725007;28;20216;-71
2022/01/15 04:13:05;;;;;;;0.00;0.00;;;;;;;;;;1726942;28;20299;-71
2022/01/15 04:13:56;;;;;;;0.00;0.00;;;;;;;;;;1725624;28;20214;-71
2022/01/15 04:14:48;;;;;;;0.00;0.00;;;;;;;;;;1725859;28;20751;-71
2022/01/15 04:15:39;;;;;;;0.00;0.00;;;;;;;;;;1723407;28;20263;-71
2022/01/15 04:16:31;;;;;;;0.00;0.00;;;;;;;;;;1726051;28;20232;-71
2022/01/15 04:17:23;;;;;;;0.00;0.00;;;;;;;;;;1724964;28;20204;-71
2022/01/15 04:18:15;;;;;;;0.00;0.00;;;;;;;;;;1726135;28;20223;-71
2022/01/15 04:19:07;;;;;;;0.00;0.00;;;;;;;;;;1725273;28;20204;-71
2022/01/15 04:19:59;;;;;;;0.00;0.00;;;;;;;;;;1724930;28;20539;-70
2022/01/15 04:20:51;;;;;;;0.00;0.00;;;;;;;;;;1723514;28;20236;-71
2022/01/15 04:21:43;;;;;;;0.00;0.00;;;;;;;;;;1725364;28;20645;-71
2022/01/15 04:22:34;;;;;;;0.00;0.00;;;;;;;;;;1725491;28;20219;-71
2022/01/15 04:23:26;;;;;;;0.00;0.00;;;;;;;;;;1725325;28;20226;-71
2022/01/15 04:24:20;;;;;;;0.00;0.00;;;;;;;;;;1725820;28;20223;-71
2022/01/15 04:25:12;;;;;;;0.00;0.00;;;;;;;;;;1723776;28;20752;-71
2022/01/15 04:26:04;;;;;;;0.00;0.00;;;;;;;;;;1724532;28;20244;-71
2022/01/15 04:26:56;;;;;;;0.00;0.00;;;;;;;;;;1726279;28;20200;-71
2022/01/15 04:27:47;;;;;;;0.00;0.00;;;;;;;;;;1725718;28;20650;-71
2022/01/15 04:28:40;;;;;;;0.00;0.00;;;;;;;;;;1724943;28;20295;-71
2022/01/15 04:29:33;;;;;;;0.00;0.00;;;;;;;;;;1727871;28;20295;-71
2022/01/15 04:30:26;;;;;;;0.00;0.00;;;;;;;;;;1725210;28;20208;-70
2022/01/15 04:31:17;;;;;;;0.00;0.00;;;;;;;;;;1725456;28;20612;-70
2022/01/15 04:32:10;;;;;;;0.00;0.00;;;;;;;;;;1724853;28;20242;-70
2022/01/15 04:33:01;;;;;;;0.00;0.00;;;;;;;;;;1725059;28;20204;-70
2022/01/15 04:33:53;;;;;;;0.00;0.00;;;;;;;;;;1724251;28;20200;-70
2022/01/15 04:34:44;;;;;;;0.00;0.00;;;;;;;;;;1726034;28;20214;-70
2022/01/15 04:35:37;;;;;;;0.00;0.00;;;;;;;;;;1723202;28;20817;-70
2022/01/15 04:36:29;;;;;;;0.00;0.00;;;;;;;;;;1726129;28;20204;-70
2022/01/15 04:37:23;;;;;;;0.00;0.00;;;;;;;;;;1724367;28;20293;-70
2022/01/15 04:38:15;;;;;;;0.00;0.00;;;;;;;;;;1725124;28;20196;-70
2022/01/15 04:39:06;;;;;;;0.00;0.00;;;;;;;;;;1725439;28;20231;-70
2022/01/15 04:40:00;;;;;;;0.00;0.00;;;;;;;;;;1725320;28;20203;-70
2022/01/15 04:40:51;;;;;;;0.00;0.00;;;;;;;;;;1723316;28;20729;-70
2022/01/15 04:41:43;;;;;;;0.00;0.00;;;;;;;;;;1725402;28;20201;-70
2022/01/15 04:42:35;;;;;;;0.00;0.00;;;;;;;;;;1725369;28;20201;-70
2022/01/15 04:43:27;;;;;;;0.00;0.00;;;;;;;;;;1725122;28;20416;-70
2022/01/15 04:44:18;;;;;;;0.00;0.00;;;;;;;;;;1725073;28;20673;-70
2022/01/15 04:45:14;;;;;;;0.05;0.05;;;;;;;;;;1724523;28;20218;-70
2022/01/15 04:46:05;;;;;;;0.00;0.00;;;;;;;;;;1724165;28;20290;-70
2022/01/15 04:46:59;;;;;;;0.00;0.00;;;;;;;;;;1727473;28;20476;-70
2022/01/15 04:47:50;;;;;;;0.00;0.00;;;;;;;;;;1725952;28;20545;-70
2022/01/15 04:48:42;;;;;;;0.00;0.00;;;;;;;;;;1725118;28;20637;-70
2022/01/15 04:49:33;;;;;;;0.00;0.00;;;;;;;;;;1724879;28;20535;-70
2022/01/15 04:50:25;;;;;;;0.00;0.00;;;;;;;;;;1722587;28;20204;-70
2022/01/15 04:51:17;;;;;;;0.00;0.00;;;;;;;;;;1725321;28;20196;-70
2022/01/15 04:52:09;;;;;;;0.00;0.00;;;;;;;;;;1725215;28;20223;-70
2022/01/15 04:53:00;;;;;;;0.00;0.00;;;;;;;;;;1723881;28;20212;-70
2022/01/15 04:53:52;;;;;;;0.00;0.00;;;;;;;;;;1726116;28;20232;-70
2022/01/15 04:54:43;;;;;;;0.00;0.00;;;;;;;;;;1725575;28;20215;-70
2022/01/15 04:55:37;;;;;;;0.00;0.00;;;;;;;;;;1722521;28;20241;-70
2022/01/15 04:56:28;;;;;;;0.00;0.00;;;;;;;;;;1725518;28;20219;-70
2022/01/15 04:57:20;;;;;;;0.00;0.00;;;;;;;;;;1725313;28;20215;-70
2022/01/15 04:58:12;;;;;;;0.00;0.00;;;;;;;;;;1725786;28;20208;-70
2022/01/15 04:59:04;;;;;;;0.00;0.00;;;;;;;;;;1724971;28;20204;-70
2022/01/15 04:59:55;;;;;;;0.00;0.00;;;;;;;;;;1725174;28;20205;-70
2022/01/15 05:00:47;;;;;;;0.00;0.00;;;;;;;;;;1723063;28;20657;-70
2022/01/15 05:01:39;;;;;;;0.00;0.00;;;;;;;;;;1724601;28;20204;-70
2022/01/15 05:02:31;;;;;;;0.00;0.00;;;;;;;;;;1724530;28;20218;-70
2022/01/15 05:03:22;;;;;;;0.00;0.00;;;;;;;;;;1725999;28;20614;-70
2022/01/15 05:04:14;;;;;;;0.00;0.00;;;;;;;;;;1725333;28;20594;-70
2022/01/15 05:05:06;;;;;;;0.00;0.00;;;;;;;;;;1725010;28;20212;-70
2022/01/15 05:05:58;;;;;;;0.03;0.03;;;;;;;;;;1723428;28;20290;-70
2022/01/15 05:06:49;;;;;;;0.00;0.00;;;;;;;;;;1724852;28;20214;-70
2022/01/15 05:07:42;;;;;;;0.00;0.00;;;;;;;;;;1724812;28;20228;-70
2022/01/15 05:08:33;;;;;;;0.00;0.00;;;;;;;;;;1725113;28;20215;-70
2022/01/15 05:09:25;;;;;;;0.00;0.00;;;;;;;;;;1725660;28;20682;-70
2022/01/15 05:10:18;;;;;;;0.00;0.00;;;;;;;;;;1723603;28;20213;-70
2022/01/15 05:11:25;;;;;;;0.00;0.00;;;;;;;;;;1724906;28;20251;-70
2022/01/15 05:12:27;;;;;;;0.00;0.00;;;;;;;;;;1725040;28;20219;-70
2022/01/15 05:13:23;;;;;;;0.00;0.00;;;;;;;;;;1725303;28;20184;-70
2022/01/15 05:14:15;;;;;;;0.00;0.00;;;;;;;;;;1725087;28;20228;-70
2022/01/15 05:15:12;;;;;;;0.00;0.00;;;;;;;;;;1724582;28;20697;-70
2022/01/15 05:16:03;;;;;;;0.00;0.00;;;;;;;;;;1723014;28;20236;-70
2022/01/15 05:16:55;;;;;;;0.10;0.10;;;;;;;;;;1725118;28;20596;-70
2022/01/15 05:17:47;;;;;;;0.00;0.00;;;;;;;;;;1725484;28;20212;-70
2022/01/15 05:18:39;;;;;;;0.00;0.00;;;;;;;;;;1725348;28;20594;-70
2022/01/15 05:19:30;;;;;;;0.00;0.00;;;;;;;;;;1724731;28;20212;-70
2022/01/15 05:20:22;;;;;;;0.00;0.00;;;;;;;;;;1724051;28;20200;-70
2022/01/15 05:21:14;;;;;;;0.00;0.00;;;;;;;;;;1725097;28;20289;-70
2022/01/15 05:22:06;;;;;;;0.05;0.05;;;;;;;;;;1725025;28;20207;-70
2022/01/15 05:22:57;;;;;;;0.05;0.05;;;;;;;;;;1725934;28;20231;-70
2022/01/15 05:23:49;;;;;;;0.00;0.00;;;;;;;;;;1724716;28;20684;-70
2022/01/15 05:24:40;;;;;;;0.00;0.00;;;;;;;;;;1724127;28;20204;-70
2022/01/15 05:25:32;;;;;;;0.00;0.00;;;;;;;;;;1722080;28;20251;-71
2022/01/15 05:26:25;;;;;;;0.00;0.00;;;;;;;;;;1725282;28;20662;-71
2022/01/15 05:27:17;;;;;;;0.00;0.00;;;;;;;;;;1725130;28;20212;-71
2022/01/15 05:28:08;;;;;;;0.00;0.00;;;;;;;;;;1725505;28;20212;-71
2022/01/15 05:29:01;;;;;;;0.00;0.00;;;;;;;;;;1724768;28;20204;-71
2022/01/15 05:29:52;;;;;;;0.00;0.00;;;;;;;;;;1725230;28;20204;-71